Willow Creek, California
Current Conditions -  °F | °C
As of 9:53 PM on Monday 20 Oct 2014 (Local Time) from KACV Reporting Station
Clear Clear  
Wind Chill: 53°   Ceiling: Unl
Heat Index: 53°   Visibility: 10mi
Dew Point: 48°   Wind: 6mph
Humidity: 83%   Direction: 140°SE
Pressure: 30"   Gusts: NA
Location:  40.94°N, 123.63°W
Report Text: KACV 210453Z AUTO 14005KT 10SM CLR 12/09 A3000 RMK AO2 SLP163 T01170089
Loading
Personal Weather Stations






























Interactive Weather Map
Tropical Storm Tracking
New forecast layout! Learn more

10-Day Weather Forecast

Advertisements
Track Severe Weather on mobile